createdAt,value
2019-01-26T00:00:42.096Z,17.10
2019-01-26T00:03:10.786Z,15.97
2019-01-26T00:05:39.349Z,15.40
2019-01-26T00:08:07.850Z,16.00
2019-01-26T00:10:36.239Z,14.73
2019-01-26T00:13:04.646Z,14.60
2019-01-26T00:15:33.162Z,12.87
2019-01-26T00:18:01.539Z,14.80
2019-01-26T00:20:30.030Z,14.97
2019-01-26T00:22:58.418Z,13.70
2019-01-26T00:25:26.834Z,13.13
2019-01-26T00:27:55.236Z,13.07
2019-01-26T00:30:23.660Z,13.30
2019-01-26T00:32:52.059Z,12.83
2019-01-26T00:35:20.560Z,11.83
2019-01-26T00:37:49.095Z,12.73
2019-01-26T00:40:17.763Z,11.87
2019-01-26T00:42:46.180Z,12.23
2019-01-26T00:45:14.580Z,10.53
2019-01-26T00:47:43.003Z,10.93
2019-01-26T00:50:12.939Z,11.80
2019-01-26T00:52:41.431Z,11.30
2019-01-26T00:55:10.262Z,11.43
2019-01-26T00:57:38.697Z,11.73
2019-01-26T01:00:18.289Z,9.83
2019-01-26T01:02:46.850Z,10.17
2019-01-26T01:05:15.320Z,10.17
2019-01-26T01:07:43.766Z,11.00
2019-01-26T01:10:19.644Z,11.67
2019-01-26T01:12:48.144Z,10.37
2019-01-26T01:15:21.346Z,12.23
2019-01-26T01:17:49.735Z,11.63
2019-01-26T01:20:18.297Z,11.60
2019-01-26T01:22:46.688Z,11.33
2019-01-26T01:25:15.117Z,11.17
2019-01-26T01:27:43.495Z,10.53
2019-01-26T01:30:25.524Z,11.07
2019-01-26T01:32:52.313Z,11.53
2019-01-26T01:35:20.737Z,11.50
2019-01-26T01:37:49.132Z,11.63
2019-01-26T01:40:17.727Z,11.73
2019-01-26T01:42:46.176Z,11.00
2019-01-26T01:45:20.381Z,11.40
2019-01-26T01:47:48.797Z,11.27
2019-01-26T01:50:17.279Z,11.53
2019-01-26T01:52:45.661Z,11.20
2019-01-26T01:55:14.204Z,11.60
2019-01-26T01:57:42.647Z,11.70
2019-01-26T02:00:14.474Z,12.13
2019-01-26T02:02:42.903Z,10.80
2019-01-26T02:05:11.282Z,11.77
2019-01-26T02:07:39.710Z,10.77
2019-01-26T02:10:11.239Z,11.33
2019-01-26T02:12:39.655Z,9.90
2019-01-26T02:15:10.083Z,10.20
2019-01-26T02:17:38.503Z,11.23
2019-01-26T02:20:10.227Z,9.67
2019-01-26T02:22:38.616Z,11.03
2019-01-26T02:25:17.952Z,9.90
2019-01-26T02:27:53.736Z,9.70
2019-01-26T02:30:23.139Z,10.17
2019-01-26T02:32:51.556Z,10.20
2019-01-26T02:35:20.014Z,10.27
2019-01-26T02:37:48.400Z,8.97
2019-01-26T02:40:17.889Z,9.90
2019-01-26T02:42:46.270Z,9.90
2019-01-26T02:45:15.903Z,9.73
2019-01-26T02:47:53.372Z,9.40
2019-01-26T02:50:21.762Z,9.90
2019-01-26T02:52:50.174Z,9.07
2019-01-26T02:55:19.582Z,9.87
2019-01-26T02:57:48.042Z,7.63
2019-01-26T03:00:19.129Z,9.13
2019-01-26T03:02:47.523Z,9.03
2019-01-26T03:05:18.224Z,8.27
2019-01-26T03:07:46.752Z,7.97
2019-01-26T03:10:17.804Z,8.27
2019-01-26T03:12:46.208Z,8.27
2019-01-26T03:15:17.600Z,8.07
2019-01-26T03:17:46.016Z,7.50
2019-01-26T03:20:15.941Z,7.73
2019-01-26T03:22:44.368Z,7.70
2019-01-26T03:25:14.491Z,8.40
2019-01-26T03:27:42.912Z,7.47
2019-01-26T03:30:17.107Z,7.30
2019-01-26T03:32:45.481Z,7.70
2019-01-26T03:35:13.900Z,7.50
2019-01-26T03:37:42.288Z,7.60
2019-01-26T03:40:14.081Z,7.73
2019-01-26T03:42:42.452Z,6.60
2019-01-26T03:45:13.179Z,8.07
2019-01-26T03:47:41.595Z,7.33
2019-01-26T03:50:11.720Z,8.50
2019-01-26T03:52:40.142Z,7.67
2019-01-26T03:55:11.423Z,7.30
2019-01-26T03:57:39.807Z,7.40
2019-01-26T04:00:14.162Z,7.70
2019-01-26T04:02:42.544Z,8.23
2019-01-26T04:05:10.971Z,7.90
2019-01-26T04:07:39.356Z,8.13
2019-01-26T04:10:10.112Z,8.07
2019-01-26T04:12:38.500Z,7.63
2019-01-26T04:15:12.238Z,8.00
2019-01-26T04:17:40.622Z,8.03
2019-01-26T04:20:11.739Z,8.77
2019-01-26T04:22:40.150Z,9.27
2019-01-26T04:25:08.530Z,9.50
2019-01-26T04:27:36.947Z,8.13
2019-01-26T04:30:11.562Z,8.80
2019-01-26T04:32:39.984Z,8.73
2019-01-26T04:35:09.904Z,9.43
2019-01-26T04:37:38.280Z,8.83
2019-01-26T04:40:12.066Z,9.73
2019-01-26T04:42:40.483Z,9.67
2019-01-26T04:45:11.863Z,9.57
2019-01-26T04:47:40.245Z,9.73
2019-01-26T04:50:11.590Z,9.97
2019-01-26T04:52:39.967Z,9.27
2019-01-26T04:55:08.381Z,10.80
2019-01-26T04:57:36.763Z,9.90
2019-01-26T05:00:08.432Z,10.50
2019-01-26T05:02:36.811Z,11.00
2019-01-26T05:05:05.278Z,10.73
2019-01-26T05:07:33.687Z,10.73
2019-01-26T05:10:02.074Z,12.27
2019-01-26T05:12:30.483Z,11.53
2019-01-26T05:14:58.862Z,12.10
2019-01-26T05:17:27.278Z,10.97
2019-01-26T05:19:55.666Z,11.07
2019-01-26T05:22:24.050Z,11.57
2019-01-26T05:24:52.466Z,11.40
2019-01-26T05:27:20.927Z,11.97
2019-01-26T05:29:49.347Z,11.03
2019-01-26T05:32:17.726Z,12.03
2019-01-26T05:34:46.143Z,11.80
2019-01-26T05:37:14.532Z,11.03
2019-01-26T05:39:42.914Z,12.33
2019-01-26T05:42:11.330Z,11.50
2019-01-26T05:44:39.715Z,11.23
2019-01-26T05:47:08.130Z,11.23
2019-01-26T05:49:36.510Z,10.80
2019-01-26T05:52:04.927Z,11.93
2019-01-26T05:54:33.311Z,10.90
2019-01-26T05:57:01.689Z,10.70
2019-01-26T05:59:30.106Z,11.60
2019-01-26T06:01:58.491Z,11.53
2019-01-26T06:04:26.913Z,11.90
2019-01-26T06:06:55.297Z,11.70
2019-01-26T06:09:23.701Z,11.43
2019-01-26T06:11:52.151Z,11.57
2019-01-26T06:14:20.567Z,11.63
2019-01-26T06:16:49.423Z,11.13
2019-01-26T06:19:17.805Z,10.70
2019-01-26T06:21:46.993Z,10.33
2019-01-26T06:24:15.405Z,10.30
2019-01-26T06:26:44.856Z,10.57
2019-01-26T06:29:13.265Z,10.97
2019-01-26T06:31:41.679Z,10.90
2019-01-26T06:34:10.075Z,10.17
2019-01-26T06:36:38.475Z,9.93
2019-01-26T06:39:07.362Z,10.30
2019-01-26T06:41:35.783Z,11.13
2019-01-26T06:44:04.174Z,11.07
2019-01-26T06:46:32.580Z,10.37
2019-01-26T06:49:01.775Z,10.77
2019-01-26T06:51:30.163Z,10.87
2019-01-26T06:53:58.587Z,10.60
2019-01-26T06:56:26.974Z,9.80
2019-01-26T06:58:55.377Z,11.23
2019-01-26T07:01:23.762Z,10.20
2019-01-26T07:03:52.253Z,10.53
2019-01-26T07:06:22.292Z,10.20
2019-01-26T07:08:50.736Z,10.33
2019-01-26T07:11:19.151Z,11.03
2019-01-26T07:13:47.537Z,10.73
2019-01-26T07:16:17.590Z,10.33
2019-01-26T07:18:45.979Z,11.33
2019-01-26T07:21:14.390Z,11.30
2019-01-26T07:23:42.769Z,12.43
2019-01-26T07:26:11.198Z,12.60
2019-01-26T07:28:39.584Z,13.00
2019-01-26T07:31:07.980Z,12.63
2019-01-26T07:33:36.403Z,15.77
2019-01-26T07:36:04.790Z,12.50
2019-01-26T07:38:33.299Z,14.73
2019-01-26T07:41:01.682Z,16.90
2019-01-26T07:43:30.112Z,15.83
2019-01-26T07:45:58.578Z,12.47
2019-01-26T07:48:26.993Z,11.97
2019-01-26T07:50:55.386Z,11.73
2019-01-26T07:53:23.822Z,13.10
2019-01-26T07:55:52.287Z,12.37
2019-01-26T07:58:20.675Z,11.67
2019-01-26T08:00:49.100Z,11.87
2019-01-26T08:03:17.492Z,11.27
2019-01-26T08:11:33.882Z,10.47
2019-01-26T08:17:25.711Z,12.87
2019-01-26T08:22:43.642Z,9.67
2019-01-26T08:25:14.905Z,10.83
2019-01-26T08:33:54.573Z,9.83
2019-01-26T08:36:34.898Z,10.40
2019-01-26T08:39:10.425Z,9.93
2019-01-26T08:51:10.957Z,9.23
2019-01-26T08:53:47.271Z,21.40
2019-01-26T08:56:19.143Z,9.40
2019-01-26T08:58:53.191Z,9.23
2019-01-26T09:01:21.839Z,8.90
2019-01-26T09:03:58.377Z,8.27
2019-01-26T09:06:31.432Z,8.97
2019-01-26T09:09:02.162Z,8.33
2019-01-26T09:11:32.294Z,9.73
2019-01-26T09:14:09.983Z,8.73
2019-01-26T09:20:22.853Z,8.80
2019-01-26T09:22:53.089Z,8.37
2019-01-26T09:25:27.045Z,8.17
2019-01-26T09:27:58.647Z,8.10
2019-01-26T09:30:31.794Z,7.07
2019-01-26T09:33:06.103Z,8.37
2019-01-26T09:35:42.684Z,7.20
2019-01-26T09:38:11.267Z,7.77
2019-01-26T09:40:42.256Z,7.10
2019-01-26T09:43:20.262Z,7.87
2019-01-26T09:45:48.524Z,7.40
2019-01-26T09:48:20.045Z,7.33
2019-01-26T09:50:48.540Z,7.20
2019-01-26T09:53:18.138Z,7.30
2019-01-26T09:55:55.403Z,7.33
2019-01-26T09:58:33.387Z,7.37
2019-01-26T10:01:09.168Z,7.70
2019-01-26T10:03:40.721Z,6.90
2019-01-26T10:06:20.273Z,6.90
2019-01-26T10:09:18.310Z,6.80
2019-01-26T10:11:54.268Z,6.80
2019-01-26T10:14:23.061Z,6.67
2019-01-26T10:16:51.948Z,6.40
2019-01-26T10:19:21.584Z,6.17
2019-01-26T10:21:50.440Z,5.60
2019-01-26T10:24:19.176Z,5.90
2019-01-26T10:26:47.831Z,5.40
2019-01-26T10:29:17.757Z,5.50
2019-01-26T10:31:47.152Z,5.50
2019-01-26T10:34:15.638Z,5.03
2019-01-26T10:36:45.697Z,5.10
2019-01-26T10:39:14.890Z,4.87
2019-01-26T10:41:44.933Z,5.30
2019-01-26T10:44:15.147Z,5.40
2019-01-26T10:46:43.545Z,4.60
2019-01-26T10:49:11.967Z,4.90
2019-01-26T10:51:40.350Z,5.37
2019-01-26T10:54:08.836Z,4.83
2019-01-26T10:56:37.879Z,4.77
2019-01-26T10:59:06.315Z,5.10
2019-01-26T11:01:34.698Z,4.90
2019-01-26T11:04:03.130Z,4.77
2019-01-26T11:06:31.600Z,4.80
2019-01-26T11:09:00.024Z,4.93
2019-01-26T11:11:28.407Z,4.67
2019-01-26T11:13:57.021Z,4.27
2019-01-26T11:16:25.470Z,4.70
2019-01-26T11:18:53.926Z,5.10
2019-01-26T11:21:25.405Z,5.43
2019-01-26T11:23:59.305Z,4.70
2019-01-26T11:26:31.739Z,4.60
2019-01-26T11:29:01.187Z,5.00
2019-01-26T11:31:29.990Z,4.30
2019-01-26T11:33:58.883Z,4.80
2019-01-26T11:36:27.506Z,5.20
2019-01-26T11:38:56.090Z,4.37
2019-01-26T11:41:25.577Z,4.53
2019-01-26T11:43:55.027Z,4.90
2019-01-26T11:46:25.282Z,5.47
2019-01-26T11:48:53.757Z,6.50
2019-01-26T11:51:23.953Z,6.07
2019-01-26T11:53:52.936Z,5.50
2019-01-26T11:56:36.164Z,5.10
2019-01-26T11:59:06.473Z,5.53
2019-01-26T12:01:47.629Z,5.57
2019-01-26T12:12:37.378Z,4.80
2019-01-26T12:15:29.296Z,17.40
2019-01-26T12:20:50.492Z,7.47
2019-01-26T12:23:22.969Z,7.20
2019-01-26T12:25:52.133Z,7.20
2019-01-26T12:28:26.568Z,5.23
2019-01-26T12:30:59.164Z,5.00
2019-01-26T12:33:27.731Z,5.67
2019-01-26T12:35:56.308Z,5.70
2019-01-26T12:38:25.078Z,5.27
2019-01-26T12:41:05.525Z,5.30
2019-01-26T12:43:36.526Z,4.60
2019-01-26T12:46:06.782Z,5.07
2019-01-26T12:48:36.529Z,8.40
2019-01-26T12:51:08.841Z,5.90
2019-01-26T12:53:39.027Z,4.87
2019-01-26T12:56:12.552Z,5.63
2019-01-26T12:58:42.732Z,4.70
2019-01-26T13:01:12.937Z,5.23
2019-01-26T13:03:51.741Z,4.60
2019-01-26T13:06:20.497Z,4.60
2019-01-26T13:08:49.278Z,4.97
2019-01-26T13:11:20.748Z,3.73
2019-01-26T13:13:51.996Z,4.53
2019-01-26T13:16:21.067Z,4.20
2019-01-26T13:18:50.944Z,4.50
2019-01-26T13:21:21.810Z,4.97
2019-01-26T13:23:51.198Z,4.70
2019-01-26T13:26:19.856Z,4.73
2019-01-26T13:28:48.885Z,4.90
2019-01-26T13:31:17.606Z,4.50
2019-01-26T13:33:46.196Z,4.63
2019-01-26T13:36:15.085Z,4.60
2019-01-26T13:38:43.737Z,4.27
2019-01-26T13:41:12.417Z,4.17
2019-01-26T13:43:40.956Z,4.50
2019-01-26T13:46:09.624Z,4.67
2019-01-26T13:48:39.365Z,4.60
2019-01-26T13:51:12.954Z,3.90
2019-01-26T13:53:39.990Z,4.30
2019-01-26T13:56:21.706Z,3.70
2019-01-26T14:01:29.977Z,3.90
2019-01-26T14:04:10.297Z,4.00
2019-01-26T14:06:39.175Z,4.10
2019-01-26T14:09:08.689Z,3.97
2019-01-26T14:11:38.406Z,3.90
2019-01-26T14:14:08.730Z,3.60
2019-01-26T14:16:38.343Z,3.87
2019-01-26T14:19:15.032Z,4.60
2019-01-26T14:21:43.994Z,4.40
2019-01-26T14:24:12.637Z,3.97
2019-01-26T14:26:42.293Z,4.43
2019-01-26T14:29:16.126Z,4.13
2019-01-26T14:31:46.804Z,3.90
2019-01-26T14:34:24.716Z,4.07
2019-01-26T14:36:56.060Z,4.80
2019-01-26T14:39:24.742Z,4.03
2019-01-26T14:41:54.146Z,4.63
2019-01-26T14:44:28.538Z,4.13
2019-01-26T14:46:57.905Z,4.17
2019-01-26T14:49:28.554Z,4.03
2019-01-26T14:52:04.287Z,4.37
2019-01-26T14:54:38.277Z,3.93
2019-01-26T14:57:15.475Z,4.23
2019-01-26T14:59:44.064Z,4.00
2019-01-26T15:02:18.046Z,4.40
2019-01-26T15:04:48.754Z,4.63
2019-01-26T15:07:22.167Z,4.57
2019-01-26T15:09:59.155Z,4.47
2019-01-26T15:12:28.330Z,4.23
2019-01-26T15:15:06.654Z,4.57
2019-01-26T15:20:37.959Z,4.23
2019-01-26T15:23:23.066Z,4.00
2019-01-26T15:25:53.519Z,5.47
2019-01-26T15:28:34.573Z,4.00
2019-01-26T15:30:58.043Z,5.43
2019-01-26T15:36:32.617Z,5.07
2019-01-26T15:42:07.659Z,5.43
2019-01-26T15:44:38.140Z,6.90
2019-01-26T15:47:23.259Z,7.43
2019-01-26T15:49:53.313Z,6.17
2019-01-26T15:52:30.278Z,7.30
2019-01-26T15:54:58.440Z,6.77
2019-01-26T16:03:29.202Z,7.30
2019-01-26T16:06:01.741Z,7.07
2019-01-26T16:08:34.525Z,7.70
2019-01-26T16:11:06.061Z,8.07
2019-01-26T16:13:55.363Z,8.37
2019-01-26T16:16:24.908Z,8.43
2019-01-26T16:18:56.869Z,8.40
2019-01-26T16:21:25.854Z,7.63
2019-01-26T16:24:03.979Z,8.20
2019-01-26T16:26:45.077Z,8.30
2019-01-26T16:29:18.010Z,7.57
2019-01-26T16:31:45.684Z,8.27
2019-01-26T16:34:14.485Z,8.87
2019-01-26T16:36:44.313Z,7.60
2019-01-26T16:39:13.432Z,8.33
2019-01-26T16:41:42.063Z,9.03
2019-01-26T16:44:10.848Z,8.73
2019-01-26T16:46:39.530Z,8.10
2019-01-26T16:49:08.281Z,7.17
2019-01-26T16:51:36.988Z,7.93
2019-01-26T16:54:05.706Z,8.37
2019-01-26T16:56:34.415Z,8.00
2019-01-26T16:59:04.058Z,8.03
2019-01-26T17:01:32.769Z,8.20
2019-01-26T17:04:01.863Z,8.20
2019-01-26T17:06:30.599Z,9.03
2019-01-26T17:08:59.323Z,9.67
2019-01-26T17:11:30.717Z,9.73
2019-01-26T17:13:59.707Z,8.50
2019-01-26T17:16:29.327Z,9.07
2019-01-26T17:18:58.065Z,9.03
2019-01-26T17:21:28.994Z,8.93
2019-01-26T17:23:57.479Z,9.00
2019-01-26T17:26:25.899Z,8.50
2019-01-26T17:28:54.297Z,9.10
2019-01-26T17:31:22.675Z,8.83
2019-01-26T17:33:51.138Z,8.23
2019-01-26T17:36:19.523Z,7.80
2019-01-26T17:38:47.907Z,8.17
2019-01-26T17:41:16.334Z,8.00
2019-01-26T17:43:44.788Z,7.27
2019-01-26T17:46:13.203Z,7.60
2019-01-26T17:48:41.591Z,7.37
2019-01-26T17:51:10.018Z,7.57
2019-01-26T17:53:38.399Z,7.40
2019-01-26T17:56:06.783Z,6.93
2019-01-26T17:58:35.203Z,7.50
2019-01-26T18:01:03.663Z,7.33
2019-01-26T18:03:32.039Z,7.40
2019-01-26T18:06:00.454Z,7.83
2019-01-26T18:08:28.903Z,7.90
2019-01-26T18:10:57.284Z,8.40
2019-01-26T18:13:25.702Z,7.03
2019-01-26T18:15:54.090Z,7.80
2019-01-26T18:18:22.580Z,9.43
2019-01-26T18:20:50.980Z,8.33
2019-01-26T18:23:21.013Z,8.37
2019-01-26T18:25:49.704Z,9.00
2019-01-26T18:28:18.086Z,8.87
2019-01-26T18:30:46.578Z,9.67
2019-01-26T18:33:15.201Z,10.40
2019-01-26T18:35:43.717Z,10.73
2019-01-26T18:38:12.111Z,10.00
2019-01-26T18:40:40.542Z,9.47
2019-01-26T18:43:08.940Z,11.17
2019-01-26T18:45:37.331Z,10.73
2019-01-26T18:48:05.750Z,9.93
2019-01-26T18:50:43.045Z,10.97
2019-01-26T18:53:11.468Z,10.60
2019-01-26T18:55:39.875Z,10.90
2019-01-26T18:58:08.379Z,9.50
2019-01-26T19:00:39.617Z,10.63
2019-01-26T19:03:23.229Z,10.37
2019-01-26T19:05:55.080Z,10.17
2019-01-26T19:08:23.477Z,10.10
2019-01-26T19:10:51.895Z,9.43
2019-01-26T19:13:20.489Z,10.47
2019-01-26T19:15:51.820Z,9.63
2019-01-26T19:18:21.147Z,9.40
2019-01-26T19:20:50.812Z,9.13
2019-01-26T19:23:19.323Z,9.40
2019-01-26T19:25:54.936Z,9.00
2019-01-26T19:28:24.920Z,9.20
2019-01-26T19:30:53.528Z,8.97
2019-01-26T19:33:22.116Z,8.47
2019-01-26T19:35:51.904Z,8.37
2019-01-26T19:38:20.399Z,8.40
2019-01-26T19:40:51.469Z,8.43
2019-01-26T19:43:22.673Z,7.87
2019-01-26T19:45:51.183Z,9.10
2019-01-26T19:48:19.863Z,9.37
2019-01-26T19:53:38.182Z,8.27
2019-01-26T19:56:06.594Z,8.63
2019-01-26T19:58:34.989Z,7.20
2019-01-26T20:01:03.384Z,7.43
2019-01-26T20:03:31.823Z,7.77
2019-01-26T20:06:00.226Z,7.20
2019-01-26T20:08:28.644Z,7.70
2019-01-26T20:10:57.030Z,7.30
2019-01-26T20:13:25.465Z,7.00
2019-01-26T20:15:53.916Z,7.70
2019-01-26T20:18:22.349Z,6.83
2019-01-26T20:20:51.730Z,7.30
2019-01-26T20:23:20.174Z,7.40
2019-01-26T20:25:49.725Z,7.03
2019-01-26T20:28:18.258Z,6.87
2019-01-26T20:30:47.102Z,6.90
2019-01-26T20:33:15.537Z,6.33
2019-01-26T20:35:46.647Z,6.80
2019-01-26T20:38:18.686Z,7.10
2019-01-26T20:40:47.240Z,7.47
2019-01-26T20:43:15.778Z,7.17
2019-01-26T20:45:46.782Z,7.70
2019-01-26T20:48:15.365Z,7.83
2019-01-26T20:50:45.279Z,6.97
2019-01-26T20:53:14.483Z,7.33
2019-01-26T20:55:43.539Z,7.00
2019-01-26T20:58:11.965Z,6.80
2019-01-26T21:00:50.200Z,7.17
2019-01-26T21:03:19.779Z,7.30
2019-01-26T21:05:48.237Z,7.50
2019-01-26T21:08:16.578Z,7.33
2019-01-26T21:10:45.003Z,6.97
2019-01-26T21:13:16.485Z,7.30
2019-01-26T21:15:43.819Z,7.53
2019-01-26T21:18:12.585Z,7.30
2019-01-26T21:20:41.212Z,7.03
2019-01-26T21:23:09.734Z,6.80
2019-01-26T21:25:38.987Z,7.00
2019-01-26T21:28:08.089Z,6.20
2019-01-26T21:30:36.717Z,7.17
2019-01-26T21:33:05.861Z,6.50
2019-01-26T21:35:34.871Z,6.20
2019-01-26T21:38:03.611Z,6.10
2019-01-26T21:40:32.377Z,6.07
2019-01-26T21:43:03.964Z,5.67
2019-01-26T21:45:32.171Z,5.63
2019-01-26T21:48:02.537Z,5.23
2019-01-26T21:50:31.259Z,5.20
2019-01-26T21:53:03.428Z,4.50
2019-01-26T21:55:34.725Z,4.80
2019-01-26T21:58:03.212Z,4.70
2019-01-26T22:00:32.676Z,4.60
2019-01-26T22:03:01.055Z,4.47
2019-01-26T22:05:29.533Z,4.30
2019-01-26T22:07:57.979Z,4.67
2019-01-26T22:10:28.037Z,4.80
2019-01-26T22:12:56.432Z,4.43
2019-01-26T22:15:25.437Z,4.70
2019-01-26T22:17:53.819Z,4.77
2019-01-26T22:20:24.346Z,4.83
2019-01-26T22:22:54.482Z,4.63
2019-01-26T22:25:23.080Z,5.10
2019-01-26T22:27:53.568Z,5.27
2019-01-26T22:30:30.482Z,5.20
2019-01-26T22:33:03.148Z,5.90
2019-01-26T22:35:31.985Z,5.60
2019-01-26T22:38:03.131Z,5.07
2019-01-26T22:40:33.511Z,5.40
2019-01-26T22:43:01.952Z,5.33
2019-01-26T22:45:30.361Z,5.37
2019-01-26T22:47:58.742Z,5.67
2019-01-26T22:50:28.943Z,5.30
2019-01-26T22:52:57.510Z,5.90
2019-01-26T22:55:25.923Z,5.93
2019-01-26T22:57:54.424Z,5.50
2019-01-26T23:00:39.289Z,5.87
2019-01-26T23:03:10.132Z,5.80
2019-01-26T23:06:01.086Z,4.83
2019-01-26T23:08:45.638Z,5.83
2019-01-26T23:11:19.863Z,5.43
2019-01-26T23:13:57.351Z,5.67
2019-01-26T23:16:41.012Z,5.50
2019-01-26T23:19:24.137Z,6.60
2019-01-26T23:22:21.658Z,5.97
2019-01-26T23:25:02.366Z,5.50
2019-01-26T23:27:45.865Z,6.33
2019-01-26T23:30:40.138Z,6.67
2019-01-26T23:36:38.615Z,6.30
2019-01-26T23:39:08.370Z,6.43
2019-01-26T23:41:36.808Z,6.27
2019-01-26T23:44:05.215Z,5.80
2019-01-26T23:46:33.904Z,5.67
2019-01-26T23:49:03.732Z,6.10
2019-01-26T23:51:32.412Z,5.37
2019-01-26T23:54:01.611Z,5.80
2019-01-26T23:56:30.368Z,5.67
2019-01-26T23:58:59.170Z,5.90
